sensor_id;sensor_type;location;lat;lon;timestamp;pressure;altitude;pressure_sealevel;temperature;humidity
85782;BME280;76219;50.128;8.728;2024-03-22T00:00:13;101260.31;;;7.97;72.74
85782;BME280;76219;50.128;8.728;2024-03-22T00:02:40;101257.34;;;7.84;72.84
85782;BME280;76219;50.128;8.728;2024-03-22T00:05:06;101260.38;;;7.96;72.88
85782;BME280;76219;50.128;8.728;2024-03-22T00:07:34;101256.00;;;7.76;73.06
85782;BME280;76219;50.128;8.728;2024-03-22T00:10:01;101256.09;;;7.73;73.63
85782;BME280;76219;50.128;8.728;2024-03-22T00:12:31;101250.03;;;7.71;73.84
85782;BME280;76219;50.128;8.728;2024-03-22T00:14:57;101247.44;;;7.69;73.25
85782;BME280;76219;50.128;8.728;2024-03-22T00:17:25;101239.38;;;7.72;73.93
85782;BME280;76219;50.128;8.728;2024-03-22T00:19:52;101233.69;;;7.61;73.80
85782;BME280;76219;50.128;8.728;2024-03-22T00:22:22;101232.63;;;7.45;74.53
85782;BME280;76219;50.128;8.728;2024-03-22T00:24:49;101228.94;;;7.49;74.31
85782;BME280;76219;50.128;8.728;2024-03-22T00:27:16;101231.66;;;7.47;74.43
85782;BME280;76219;50.128;8.728;2024-03-22T00:29:49;101241.69;;;7.39;74.77
85782;BME280;76219;50.128;8.728;2024-03-22T00:32:17;101232.63;;;7.45;75.13
85782;BME280;76219;50.128;8.728;2024-03-22T00:34:43;101226.09;;;7.53;74.77
85782;BME280;76219;50.128;8.728;2024-03-22T00:37:11;101235.47;;;7.40;75.55
85782;BME280;76219;50.128;8.728;2024-03-22T00:39:38;101227.81;;;7.34;75.32
85782;BME280;76219;50.128;8.728;2024-03-22T00:42:06;101230.53;;;7.32;75.40
85782;BME280;76219;50.128;8.728;2024-03-22T00:44:33;101209.44;;;7.31;75.21
85782;BME280;76219;50.128;8.728;2024-03-22T00:47:02;101219.72;;;7.17;75.14
85782;BME280;76219;50.128;8.728;2024-03-22T00:49:31;101222.31;;;7.18;75.12
85782;BME280;76219;50.128;8.728;2024-03-22T00:51:58;101217.88;;;7.19;75.37
85782;BME280;76219;50.128;8.728;2024-03-22T00:54:25;101218.69;;;6.99;75.67
85782;BME280;76219;50.128;8.728;2024-03-22T00:56:53;101205.91;;;7.10;75.05
85782;BME280;76219;50.128;8.728;2024-03-22T00:59:21;101196.94;;;7.14;74.95
85782;BME280;76219;50.128;8.728;2024-03-22T01:01:51;101193.69;;;7.28;75.50
85782;BME280;76219;50.128;8.728;2024-03-22T01:04:20;101192.78;;;7.09;75.42
85782;BME280;76219;50.128;8.728;2024-03-22T01:06:47;101192.78;;;7.09;75.75
85782;BME280;76219;50.128;8.728;2024-03-22T01:09:14;101189.44;;;7.03;75.76
85782;BME280;76219;50.128;8.728;2024-03-22T01:11:41;101195.06;;;6.96;75.91
85782;BME280;76219;50.128;8.728;2024-03-22T01:14:09;101184.66;;;6.91;76.37
85782;BME280;76219;50.128;8.728;2024-03-22T01:16:36;101184.88;;;6.87;76.47
85782;BME280;76219;50.128;8.728;2024-03-22T01:19:05;101185.59;;;6.90;75.86
85782;BME280;76219;50.128;8.728;2024-03-22T01:21:34;101188.50;;;6.84;76.17
85782;BME280;76219;50.128;8.728;2024-03-22T01:24:01;101180.75;;;6.80;76.06
85782;BME280;76219;50.128;8.728;2024-03-22T01:26:32;101192.25;;;6.79;76.14
85782;BME280;76219;50.128;8.728;2024-03-22T01:28:59;101185.97;;;6.81;76.48
85782;BME280;76219;50.128;8.728;2024-03-22T01:31:28;101185.91;;;6.83;76.51
85782;BME280;76219;50.128;8.728;2024-03-22T01:33:54;101178.97;;;6.80;75.86
85782;BME280;76219;50.128;8.728;2024-03-22T01:36:22;101169.25;;;6.81;76.12
85782;BME280;76219;50.128;8.728;2024-03-22T01:38:50;101178.91;;;6.82;76.26
85782;BME280;76219;50.128;8.728;2024-03-22T01:41:17;101175.84;;;6.70;76.22
85782;BME280;76219;50.128;8.728;2024-03-22T01:43:45;101183.22;;;6.62;76.49
85782;BME280;76219;50.128;8.728;2024-03-22T01:46:12;101183.53;;;6.55;77.28
85782;BME280;76219;50.128;8.728;2024-03-22T01:48:40;101179.97;;;6.56;76.99
85782;BME280;76219;50.128;8.728;2024-03-22T01:51:08;101177.88;;;6.64;76.20
85782;BME280;76219;50.128;8.728;2024-03-22T01:53:37;101174.00;;;6.51;77.29
85782;BME280;76219;50.128;8.728;2024-03-22T01:56:08;101169.28;;;6.59;76.67
85782;BME280;76219;50.128;8.728;2024-03-22T01:58:36;101171.91;;;6.59;77.04
85782;BME280;76219;50.128;8.728;2024-03-22T02:01:04;101161.75;;;6.50;76.91
85782;BME280;76219;50.128;8.728;2024-03-22T02:03:31;101165.59;;;6.41;78.04
85782;BME280;76219;50.128;8.728;2024-03-22T02:05:59;101161.25;;;6.40;78.08
85782;BME280;76219;50.128;8.728;2024-03-22T02:08:25;101157.25;;;6.52;77.30
85782;BME280;76219;50.128;8.728;2024-03-22T02:10:55;101156.13;;;6.35;78.07
85782;BME280;76219;50.128;8.728;2024-03-22T02:13:24;101149.88;;;6.16;78.75
85782;BME280;76219;50.128;8.728;2024-03-22T02:15:53;101151.66;;;6.16;78.38
85782;BME280;76219;50.128;8.728;2024-03-22T02:18:19;101147.50;;;6.08;78.24
85782;BME280;76219;50.128;8.728;2024-03-22T02:20:47;101137.47;;;6.18;78.61
85782;BME280;76219;50.128;8.728;2024-03-22T02:23:13;101138.56;;;6.12;77.82
85782;BME280;76219;50.128;8.728;2024-03-22T02:25:43;101132.47;;;6.10;78.62
85782;BME280;76219;50.128;8.728;2024-03-22T02:28:13;101126.81;;;5.98;79.18
85782;BME280;76219;50.128;8.728;2024-03-22T02:30:41;101129.53;;;5.96;78.69
85782;BME280;76219;50.128;8.728;2024-03-22T02:33:09;101125.28;;;5.92;78.82
85782;BME280;76219;50.128;8.728;2024-03-22T02:35:36;101127.63;;;6.00;78.74
85782;BME280;76219;50.128;8.728;2024-03-22T02:38:03;101119.47;;;6.06;78.87
85782;BME280;76219;50.128;8.728;2024-03-22T02:40:31;101109.72;;;6.08;79.37
85782;BME280;76219;50.128;8.728;2024-03-22T02:42:59;101122.78;;;6.11;79.01
85782;BME280;76219;50.128;8.728;2024-03-22T02:45:29;101113.75;;;5.95;79.72
85782;BME280;76219;50.128;8.728;2024-03-22T02:47:56;101123.13;;;6.02;79.14
85782;BME280;76219;50.128;8.728;2024-03-22T02:50:23;101119.63;;;6.01;79.35
85782;BME280;76219;50.128;8.728;2024-03-22T02:52:50;101131.84;;;5.80;79.06
85782;BME280;76219;50.128;8.728;2024-03-22T02:55:18;101120.25;;;5.84;79.30
85782;BME280;76219;50.128;8.728;2024-03-22T02:57:46;101126.66;;;5.77;79.44
85782;BME280;76219;50.128;8.728;2024-03-22T03:00:19;101122.09;;;5.82;79.18
85782;BME280;76219;50.128;8.728;2024-03-22T03:02:46;101115.22;;;5.78;79.43
85782;BME280;76219;50.128;8.728;2024-03-22T03:05:14;101110.19;;;5.72;79.40
85782;BME280;76219;50.128;8.728;2024-03-22T03:07:40;101110.81;;;5.79;78.70
85782;BME280;76219;50.128;8.728;2024-03-22T03:10:09;101112.53;;;5.80;79.82
85782;BME280;76219;50.128;8.728;2024-03-22T03:12:35;101106.56;;;5.75;80.05
85782;BME280;76219;50.128;8.728;2024-03-22T03:15:03;101101.22;;;5.76;80.27
85782;BME280;76219;50.128;8.728;2024-03-22T03:17:31;101098.66;;;5.75;80.08
85782;BME280;76219;50.128;8.728;2024-03-22T03:19:58;101101.13;;;5.79;80.50
85782;BME280;76219;50.128;8.728;2024-03-22T03:22:26;101095.28;;;5.71;80.39
85782;BME280;76219;50.128;8.728;2024-03-22T03:24:54;101106.75;;;5.70;80.15
85782;BME280;76219;50.128;8.728;2024-03-22T03:27:21;101097.91;;;5.71;80.15
85782;BME280;76219;50.128;8.728;2024-03-22T03:29:49;101100.72;;;5.67;79.92
85782;BME280;76219;50.128;8.728;2024-03-22T03:32:18;101098.91;;;5.69;80.71
85782;BME280;76219;50.128;8.728;2024-03-22T03:34:51;101093.00;;;5.62;80.36
85782;BME280;76219;50.128;8.728;2024-03-22T03:37:18;101083.38;;;5.61;80.40
85782;BME280;76219;50.128;8.728;2024-03-22T03:39:45;101086.00;;;5.61;80.54
85782;BME280;76219;50.128;8.728;2024-03-22T03:42:12;101080.78;;;5.60;81.18
85782;BME280;76219;50.128;8.728;2024-03-22T03:44:40;101080.00;;;5.57;80.77
85782;BME280;76219;50.128;8.728;2024-03-22T03:47:08;101083.38;;;5.61;80.96
85782;BME280;76219;50.128;8.728;2024-03-22T03:49:34;101086.78;;;5.63;80.88
85782;BME280;76219;50.128;8.728;2024-03-22T03:52:10;101079.28;;;5.52;80.79
85782;BME280;76219;50.128;8.728;2024-03-22T03:54:37;101076.44;;;5.59;81.47
85782;BME280;76219;50.128;8.728;2024-03-22T03:57:04;101075.59;;;5.58;81.40
85782;BME280;76219;50.128;8.728;2024-03-22T03:59:32;101074.59;;;5.61;80.74
85782;BME280;76219;50.128;8.728;2024-03-22T04:01:59;101077.28;;;5.59;80.62
85782;BME280;76219;50.128;8.728;2024-03-22T04:04:26;101067.50;;;5.63;80.18
85782;BME280;76219;50.128;8.728;2024-03-22T04:06:55;101077.28;;;5.59;80.42
85782;BME280;76219;50.128;8.728;2024-03-22T04:09:24;101066.63;;;5.62;79.90
85782;BME280;76219;50.128;8.728;2024-03-22T04:11:52;101064.41;;;5.51;80.84
85782;BME280;76219;50.128;8.728;2024-03-22T04:14:20;101062.94;;;5.66;80.77
85782;BME280;76219;50.128;8.728;2024-03-22T04:16:47;101049.63;;;5.71;80.27
85782;BME280;76219;50.128;8.728;2024-03-22T04:19:16;101042.44;;;5.74;80.65
85782;BME280;76219;50.128;8.728;2024-03-22T04:21:43;101044.75;;;5.60;80.84
85782;BME280;76219;50.128;8.728;2024-03-22T04:24:10;101046.13;;;5.70;80.59
85782;BME280;76219;50.128;8.728;2024-03-22T04:26:41;101041.94;;;5.65;80.87
85782;BME280;76219;50.128;8.728;2024-03-22T04:29:09;101041.78;;;5.69;80.35
85782;BME280;76219;50.128;8.728;2024-03-22T04:31:37;101049.56;;;5.72;80.81
85782;BME280;76219;50.128;8.728;2024-03-22T04:34:05;101042.56;;;5.71;80.81
85782;BME280;76219;50.128;8.728;2024-03-22T04:36:34;101046.00;;;5.73;80.45
85782;BME280;76219;50.128;8.728;2024-03-22T04:39:00;101048.41;;;5.79;80.56
85782;BME280;76219;50.128;8.728;2024-03-22T04:41:29;101050.81;;;5.62;80.35
85782;BME280;76219;50.128;8.728;2024-03-22T04:43:58;101047.59;;;5.54;80.72
85782;BME280;76219;50.128;8.728;2024-03-22T04:46:26;101054.72;;;5.52;80.86
85782;BME280;76219;50.128;8.728;2024-03-22T04:48:53;101052.94;;;5.52;80.90
85782;BME280;76219;50.128;8.728;2024-03-22T04:51:21;101051.69;;;5.63;80.47
85782;BME280;76219;50.128;8.728;2024-03-22T04:53:48;101046.28;;;5.66;80.46
85782;BME280;76219;50.128;8.728;2024-03-22T04:56:14;101053.91;;;5.73;80.70
85782;BME280;76219;50.128;8.728;2024-03-22T04:58:41;101055.00;;;5.68;80.40
85782;BME280;76219;50.128;8.728;2024-03-22T05:01:09;101055.63;;;5.74;80.63
85782;BME280;76219;50.128;8.728;2024-03-22T05:03:39;101045.78;;;5.79;80.47
85782;BME280;76219;50.128;8.728;2024-03-22T05:06:07;101048.09;;;5.87;80.06
85782;BME280;76219;50.128;8.728;2024-03-22T05:08:44;101054.63;;;5.77;80.60
85782;BME280;76219;50.128;8.728;2024-03-22T05:11:13;101050.97;;;5.81;80.09
85782;BME280;76219;50.128;8.728;2024-03-22T05:13:40;101050.41;;;5.73;80.95
85782;BME280;76219;50.128;8.728;2024-03-22T05:16:12;101047.59;;;5.77;80.44
85782;BME280;76219;50.128;8.728;2024-03-22T05:18:39;101040.19;;;5.87;80.35
85782;BME280;76219;50.128;8.728;2024-03-22T05:21:07;101047.09;;;5.91;80.01
85782;BME280;76219;50.128;8.728;2024-03-22T05:23:34;101049.88;;;5.86;80.70
85782;BME280;76219;50.128;8.728;2024-03-22T05:26:01;101047.97;;;5.92;80.62
85782;BME280;76219;50.128;8.728;2024-03-22T05:28:31;101042.50;;;5.96;80.18
85782;BME280;76219;50.128;8.728;2024-03-22T05:31:00;101043.91;;;6.05;79.91
85782;BME280;76219;50.128;8.728;2024-03-22T05:33:31;101047.47;;;6.04;79.60
85782;BME280;76219;50.128;8.728;2024-03-22T05:35:59;101051.75;;;6.06;80.10
85782;BME280;76219;50.128;8.728;2024-03-22T05:38:27;101043.72;;;6.09;80.21
85782;BME280;76219;50.128;8.728;2024-03-22T05:40:54;101042.50;;;6.18;79.71
85782;BME280;76219;50.128;8.728;2024-03-22T05:43:21;101038.09;;;6.19;79.54
85782;BME280;76219;50.128;8.728;2024-03-22T05:45:49;101041.38;;;6.24;79.91
85782;BME280;76219;50.128;8.728;2024-03-22T05:48:18;101036.94;;;6.26;79.55
85782;BME280;76219;50.128;8.728;2024-03-22T05:50:47;101040.03;;;6.35;80.01
85782;BME280;76219;50.128;8.728;2024-03-22T05:53:17;101034.56;;;6.40;79.38
85782;BME280;76219;50.128;8.728;2024-03-22T05:55:43;101031.06;;;6.60;78.71
85782;BME280;76219;50.128;8.728;2024-03-22T05:58:10;101034.78;;;6.76;78.08
85782;BME280;76219;50.128;8.728;2024-03-22T06:00:39;101023.22;;;6.99;77.36
85782;BME280;76219;50.128;8.728;2024-03-22T06:03:06;101014.72;;;6.92;76.95
85782;BME280;76219;50.128;8.728;2024-03-22T06:05:33;101015.09;;;7.03;76.55
85782;BME280;76219;50.128;8.728;2024-03-22T06:08:02;101010.16;;;7.35;75.98
85782;BME280;76219;50.128;8.728;2024-03-22T06:10:30;101017.66;;;7.63;75.84
85782;BME280;76219;50.128;8.728;2024-03-22T06:12:57;101009.94;;;7.77;75.45
85782;BME280;76219;50.128;8.728;2024-03-22T06:15:24;101006.09;;;7.66;75.46
85782;BME280;76219;50.128;8.728;2024-03-22T06:17:51;101009.16;;;7.56;76.88
85782;BME280;76219;50.128;8.728;2024-03-22T06:20:19;101000.41;;;7.92;75.79
85782;BME280;76219;50.128;8.728;2024-03-22T06:22:48;100996.03;;;8.46;74.07
85782;BME280;76219;50.128;8.728;2024-03-22T06:25:17;100993.66;;;8.74;72.64
85782;BME280;76219;50.128;8.728;2024-03-22T06:27:44;100995.88;;;9.32;70.70
85782;BME280;76219;50.128;8.728;2024-03-22T06:30:12;100992.16;;;9.52;70.18
85782;BME280;76219;50.128;8.728;2024-03-22T06:32:38;100993.56;;;10.05;67.87
85782;BME280;76219;50.128;8.728;2024-03-22T06:35:06;100989.63;;;9.18;71.72
85782;BME280;76219;50.128;8.728;2024-03-22T06:37:34;100984.69;;;9.27;71.33
85782;BME280;76219;50.128;8.728;2024-03-22T06:40:01;100982.28;;;9.70;69.83
85782;BME280;76219;50.128;8.728;2024-03-22T06:42:34;100987.59;;;9.39;71.13
85782;BME280;76219;50.128;8.728;2024-03-22T06:45:02;100977.59;;;9.91;68.07
85782;BME280;76219;50.128;8.728;2024-03-22T06:47:30;100971.41;;;9.90;67.69
85782;BME280;76219;50.128;8.728;2024-03-22T06:49:58;100971.13;;;10.11;66.91
85782;BME280;76219;50.128;8.728;2024-03-22T06:52:26;100973.13;;;10.07;67.06
85782;BME280;76219;50.128;8.728;2024-03-22T06:54:54;100974.34;;;9.70;68.15
85782;BME280;76219;50.128;8.728;2024-03-22T06:57:22;100976.28;;;9.82;67.05
85782;BME280;76219;50.128;8.728;2024-03-22T06:59:53;100976.78;;;10.20;66.13
85782;BME280;76219;50.128;8.728;2024-03-22T07:02:19;100980.72;;;10.13;66.93
85782;BME280;76219;50.128;8.728;2024-03-22T07:04:47;100964.22;;;9.92;67.48
85782;BME280;76219;50.128;8.728;2024-03-22T07:07:15;100970.94;;;10.14;66.86
85782;BME280;76219;50.128;8.728;2024-03-22T07:09:42;100963.19;;;10.11;66.64
85782;BME280;76219;50.128;8.728;2024-03-22T07:12:11;100964.59;;;9.86;67.71
85782;BME280;76219;50.128;8.728;2024-03-22T07:14:39;100967.50;;;9.98;67.39
85782;BME280;76219;50.128;8.728;2024-03-22T07:17:09;100962.41;;;10.09;67.45
85782;BME280;76219;50.128;8.728;2024-03-22T07:19:37;100968.25;;;10.00;67.07
85782;BME280;76219;50.128;8.728;2024-03-22T07:22:05;100957.44;;;10.03;67.21
85782;BME280;76219;50.128;8.728;2024-03-22T07:24:33;100955.03;;;10.14;67.05
85782;BME280;76219;50.128;8.728;2024-03-22T07:27:00;100954.78;;;10.03;67.89
85782;BME280;76219;50.128;8.728;2024-03-22T07:29:31;100957.81;;;9.97;67.64
85782;BME280;76219;50.128;8.728;2024-03-22T07:31:58;100951.31;;;9.71;68.25
85782;BME280;76219;50.128;8.728;2024-03-22T07:34:29;100946.25;;;9.98;67.65
85782;BME280;76219;50.128;8.728;2024-03-22T07:36:56;100947.34;;;9.93;68.28
85782;BME280;76219;50.128;8.728;2024-03-22T07:39:27;100942.38;;;10.03;68.02
85782;BME280;76219;50.128;8.728;2024-03-22T07:41:53;100957.31;;;9.90;68.61
85782;BME280;76219;50.128;8.728;2024-03-22T07:44:21;100957.63;;;10.00;70.15
85782;BME280;76219;50.128;8.728;2024-03-22T07:46:50;100948.34;;;10.07;70.45
85782;BME280;76219;50.128;8.728;2024-03-22T07:49:20;100949.09;;;9.79;70.93
85782;BME280;76219;50.128;8.728;2024-03-22T07:51:48;100948.72;;;10.01;70.07
85782;BME280;76219;50.128;8.728;2024-03-22T07:54:15;100941.47;;;9.88;69.89
85782;BME280;76219;50.128;8.728;2024-03-22T07:56:43;100949.91;;;10.11;70.48
85782;BME280;76219;50.128;8.728;2024-03-22T07:59:13;100952.53;;;10.27;69.95
85782;BME280;76219;50.128;8.728;2024-03-22T08:01:39;100948.78;;;10.15;70.27
85782;BME280;76219;50.128;8.728;2024-03-22T08:04:06;100942.03;;;10.09;70.02
85782;BME280;76219;50.128;8.728;2024-03-22T08:06:34;100939.78;;;10.33;70.01
85782;BME280;76219;50.128;8.728;2024-03-22T08:09:03;100939.06;;;10.60;67.60
85782;BME280;76219;50.128;8.728;2024-03-22T08:11:30;100942.78;;;10.71;67.15
85782;BME280;76219;50.128;8.728;2024-03-22T08:13:57;100932.59;;;10.19;69.03
85782;BME280;76219;50.128;8.728;2024-03-22T08:16:29;100931.41;;;10.39;68.60
85782;BME280;76219;50.128;8.728;2024-03-22T08:18:59;100924.53;;;10.51;68.15
85782;BME280;76219;50.128;8.728;2024-03-22T08:21:29;100922.63;;;10.53;68.00
85782;BME280;76219;50.128;8.728;2024-03-22T08:23:57;100919.06;;;10.82;66.31
85782;BME280;76219;50.128;8.728;2024-03-22T08:26:25;100914.59;;;10.97;65.93
85782;BME280;76219;50.128;8.728;2024-03-22T08:28:52;100914.19;;;10.46;68.32
85782;BME280;76219;50.128;8.728;2024-03-22T08:31:19;100909.84;;;10.88;66.25
85782;BME280;76219;50.128;8.728;2024-03-22T08:33:51;100907.47;;;10.98;66.48
85782;BME280;76219;50.128;8.728;2024-03-22T08:36:19;100907.47;;;10.98;65.66
85782;BME280;76219;50.128;8.728;2024-03-22T08:38:46;100909.56;;;11.07;64.93
85782;BME280;76219;50.128;8.728;2024-03-22T08:41:13;100909.38;;;10.96;66.22
85782;BME280;76219;50.128;8.728;2024-03-22T08:43:42;100912.09;;;11.23;64.82
85782;BME280;76219;50.128;8.728;2024-03-22T08:46:09;100901.72;;;11.47;64.54
85782;BME280;76219;50.128;8.728;2024-03-22T08:48:36;100902.38;;;11.50;65.00
85782;BME280;76219;50.128;8.728;2024-03-22T08:51:05;100891.19;;;11.72;63.91
85782;BME280;76219;50.128;8.728;2024-03-22T08:53:34;100884.53;;;12.19;62.22
85782;BME280;76219;50.128;8.728;2024-03-22T08:56:01;100888.50;;;12.39;61.58
85782;BME280;76219;50.128;8.728;2024-03-22T08:58:29;100881.88;;;12.44;60.79
85782;BME280;76219;50.128;8.728;2024-03-22T09:00:58;100878.69;;;12.65;60.52
85782;BME280;76219;50.128;8.728;2024-03-22T09:03:29;100876.09;;;12.89;60.03
85782;BME280;76219;50.128;8.728;2024-03-22T09:05:59;100877.44;;;13.20;58.73
85782;BME280;76219;50.128;8.728;2024-03-22T09:08:27;100873.13;;;14.25;55.63
85782;BME280;76219;50.128;8.728;2024-03-22T09:10:57;100863.97;;;15.19;53.22
85782;BME280;76219;50.128;8.728;2024-03-22T09:13:25;100863.28;;;15.49;51.68
85782;BME280;76219;50.128;8.728;2024-03-22T09:15:58;100861.13;;;14.42;54.19
85782;BME280;76219;50.128;8.728;2024-03-22T09:18:27;100860.06;;;15.12;52.77
85782;BME280;76219;50.128;8.728;2024-03-22T09:20:54;100851.94;;;14.69;53.20
85782;BME280;76219;50.128;8.728;2024-03-22T09:23:22;100843.78;;;15.58;51.97
85782;BME280;76219;50.128;8.728;2024-03-22T09:25:49;100848.41;;;15.13;52.74
85782;BME280;76219;50.128;8.728;2024-03-22T09:28:21;100852.78;;;14.58;53.54
85782;BME280;76219;50.128;8.728;2024-03-22T09:30:48;100838.34;;;14.83;53.80
85782;BME280;76219;50.128;8.728;2024-03-22T09:33:17;100836.13;;;14.88;53.84
85782;BME280;76219;50.128;8.728;2024-03-22T09:35:46;100836.38;;;14.63;54.02
85782;BME280;76219;50.128;8.728;2024-03-22T09:38:14;100832.97;;;14.49;55.09
85782;BME280;76219;50.128;8.728;2024-03-22T09:40:41;100824.84;;;14.62;54.22
85782;BME280;76219;50.128;8.728;2024-03-22T09:43:10;100828.81;;;14.45;54.59
85782;BME280;76219;50.128;8.728;2024-03-22T09:45:45;100826.81;;;14.71;54.27
85782;BME280;76219;50.128;8.728;2024-03-22T09:48:14;100822.19;;;14.73;54.76
85782;BME280;76219;50.128;8.728;2024-03-22T09:50:42;100816.97;;;14.03;55.60
85782;BME280;76219;50.128;8.728;2024-03-22T09:53:12;100815.19;;;14.37;55.46
85782;BME280;76219;50.128;8.728;2024-03-22T09:55:39;100810.00;;;14.00;56.08
85782;BME280;76219;50.128;8.728;2024-03-22T09:58:10;100804.22;;;14.07;56.01
85782;BME280;76219;50.128;8.728;2024-03-22T10:00:39;100801.19;;;15.12;54.01
85782;BME280;76219;50.128;8.728;2024-03-22T10:03:09;100809.38;;;14.99;53.72
85782;BME280;76219;50.128;8.728;2024-03-22T10:05:36;100800.09;;;16.11;51.49
85782;BME280;76219;50.128;8.728;2024-03-22T10:08:09;100798.16;;;16.43;49.53
85782;BME280;76219;50.128;8.728;2024-03-22T10:10:35;100782.44;;;17.00;49.05
85782;BME280;76219;50.128;8.728;2024-03-22T10:13:03;100785.72;;;15.91;51.02
85782;BME280;76219;50.128;8.728;2024-03-22T10:15:30;100775.78;;;16.02;50.37
85782;BME280;76219;50.128;8.728;2024-03-22T10:17:59;100772.13;;;16.24;49.74
85782;BME280;76219;50.128;8.728;2024-03-22T10:20:26;100772.88;;;15.53;51.34
85782;BME280;76219;50.128;8.728;2024-03-22T10:22:58;100759.31;;;17.18;48.00
85782;BME280;76219;50.128;8.728;2024-03-22T10:25:26;100761.81;;;16.60;49.57
85782;BME280;76219;50.128;8.728;2024-03-22T10:27:55;100758.00;;;16.22;50.30
85782;BME280;76219;50.128;8.728;2024-03-22T10:30:25;100748.72;;;17.65;47.89
85782;BME280;76219;50.128;8.728;2024-03-22T10:33:01;100755.44;;;18.17;46.06
85782;BME280;76219;50.128;8.728;2024-03-22T10:35:31;100757.34;;;18.44;45.14
85782;BME280;76219;50.128;8.728;2024-03-22T10:38:00;100741.66;;;19.40;43.26
85782;BME280;76219;50.128;8.728;2024-03-22T10:40:29;100736.19;;;19.67;42.21
85782;BME280;76219;50.128;8.728;2024-03-22T10:42:58;100733.47;;;19.67;42.19
85782;BME280;76219;50.128;8.728;2024-03-22T10:45:27;100734.25;;;20.29;41.08
85782;BME280;76219;50.128;8.728;2024-03-22T10:47:57;100733.31;;;20.81;40.11
85782;BME280;76219;50.128;8.728;2024-03-22T10:50:24;100722.63;;;19.77;41.64
85782;BME280;76219;50.128;8.728;2024-03-22T10:52:56;100717.28;;;20.11;40.72
85782;BME280;76219;50.128;8.728;2024-03-22T10:55:27;100714.63;;;19.49;42.16
85782;BME280;76219;50.128;8.728;2024-03-22T10:57:58;100715.22;;;17.88;46.21
85782;BME280;76219;50.128;8.728;2024-03-22T11:00:30;100699.81;;;17.13;47.61
85782;BME280;76219;50.128;8.728;2024-03-22T11:02:59;100713.69;;;18.50;45.00
85782;BME280;76219;50.128;8.728;2024-03-22T11:05:28;100701.09;;;17.18;47.11
85782;BME280;76219;50.128;8.728;2024-03-22T11:08:00;100692.06;;;19.68;42.44
85782;BME280;76219;50.128;8.728;2024-03-22T11:10:28;100692.72;;;20.48;40.79
85782;BME280;76219;50.128;8.728;2024-03-22T11:13:03;100681.84;;;20.74;40.10
85782;BME280;76219;50.128;8.728;2024-03-22T11:15:30;100685.16;;;19.30;42.77
85782;BME280;76219;50.128;8.728;2024-03-22T11:17:58;100679.28;;;19.70;42.38
85782;BME280;76219;50.128;8.728;2024-03-22T11:20:27;100680.28;;;19.95;42.55
85782;BME280;76219;50.128;8.728;2024-03-22T11:22:58;100664.56;;;20.25;41.18
85782;BME280;76219;50.128;8.728;2024-03-22T11:25:26;100656.28;;;21.60;39.49
85782;BME280;76219;50.128;8.728;2024-03-22T11:27:55;100650.34;;;20.99;40.69
85782;BME280;76219;50.128;8.728;2024-03-22T11:30:23;100642.00;;;19.04;44.14
85782;BME280;76219;50.128;8.728;2024-03-22T11:32:53;100641.47;;;20.56;41.13
85782;BME280;76219;50.128;8.728;2024-03-22T11:35:21;100626.41;;;20.46;41.28
85782;BME280;76219;50.128;8.728;2024-03-22T11:37:51;100629.06;;;18.72;44.72
85782;BME280;76219;50.128;8.728;2024-03-22T11:40:18;100627.31;;;18.99;45.19
85782;BME280;76219;50.128;8.728;2024-03-22T11:42:51;100629.84;;;19.00;44.55
85782;BME280;76219;50.128;8.728;2024-03-22T11:45:19;100638.88;;;17.62;48.09
85782;BME280;76219;50.128;8.728;2024-03-22T11:47:52;100625.06;;;17.94;47.50
85782;BME280;76219;50.128;8.728;2024-03-22T11:50:22;100615.69;;;17.61;48.75
85782;BME280;76219;50.128;8.728;2024-03-22T11:52:50;100620.63;;;17.75;48.03
85782;BME280;76219;50.128;8.728;2024-03-22T11:55:19;100618.88;;;17.08;49.74
85782;BME280;76219;50.128;8.728;2024-03-22T11:57:48;100613.50;;;17.27;49.60
85782;BME280;76219;50.128;8.728;2024-03-22T12:00:16;100602.06;;;17.82;48.24
85782;BME280;76219;50.128;8.728;2024-03-22T12:02:45;100602.69;;;17.56;48.97
85782;BME280;76219;50.128;8.728;2024-03-22T12:05:12;100599.03;;;17.47;49.24
85782;BME280;76219;50.128;8.728;2024-03-22T12:07:40;100603.06;;;17.81;48.68
85782;BME280;76219;50.128;8.728;2024-03-22T12:10:10;100586.06;;;17.24;49.80
85782;BME280;76219;50.128;8.728;2024-03-22T12:12:43;100586.38;;;17.67;49.41
85782;BME280;76219;50.128;8.728;2024-03-22T12:15:09;100579.25;;;18.68;47.11
85782;BME280;76219;50.128;8.728;2024-03-22T12:17:48;100577.09;;;18.72;46.84
85782;BME280;76219;50.128;8.728;2024-03-22T12:20:17;100571.25;;;18.76;46.58
85782;BME280;76219;50.128;8.728;2024-03-22T12:22:45;100569.03;;;17.99;48.65
85782;BME280;76219;50.128;8.728;2024-03-22T12:25:12;100564.88;;;18.04;48.44
85782;BME280;76219;50.128;8.728;2024-03-22T12:27:39;100561.13;;;18.43;47.61
85782;BME280;76219;50.128;8.728;2024-03-22T12:30:08;100560.78;;;18.91;46.63
85782;BME280;76219;50.128;8.728;2024-03-22T12:32:40;100554.28;;;18.03;48.55
85782;BME280;76219;50.128;8.728;2024-03-22T12:35:10;100553.72;;;18.27;48.36
85782;BME280;76219;50.128;8.728;2024-03-22T12:37:45;100553.53;;;17.36;50.09
85782;BME280;76219;50.128;8.728;2024-03-22T12:40:13;100556.88;;;18.22;48.89
85782;BME280;76219;50.128;8.728;2024-03-22T12:42:40;100553.13;;;18.05;48.38
85782;BME280;76219;50.128;8.728;2024-03-22T12:45:07;100552.19;;;18.24;47.73
85782;BME280;76219;50.128;8.728;2024-03-22T12:47:37;100544.41;;;17.66;48.63
85782;BME280;76219;50.128;8.728;2024-03-22T12:50:08;100544.63;;;18.55;47.41
85782;BME280;76219;50.128;8.728;2024-03-22T12:52:39;100538.44;;;18.27;47.11
85782;BME280;76219;50.128;8.728;2024-03-22T12:55:08;100530.75;;;17.87;48.26
85782;BME280;76219;50.128;8.728;2024-03-22T12:57:43;100521.16;;;18.30;47.26
85782;BME280;76219;50.128;8.728;2024-03-22T13:00:10;100517.38;;;18.41;47.08